Risingsun, Ohio
Current Conditions -  °F | °C
As of 7:53 PM on Friday 24 Oct 2014 (Local Time) from KTDZ Reporting Station
Clear Clear  
Wind Chill: 13°   Ceiling: Unl
Heat Index: 13°   Visibility: 9mi
Dew Point:   Wind: 5mph
Humidity: 67%   Direction: 220°SW
Pressure: 30.01"   Gusts: NA
Location:  41.27°N, 83.42°W
Report Text: KTDZ 242353Z AUTO 22004KT 9SM CLR 13/07 A3001 RMK AO2 SLP165 T01280067 10161 20128 53002 TSNO
Loading
Personal Weather Stations






























Interactive Weather Map
Tropical Storm Tracking
New forecast layout! Learn more

10-Day Weather Forecast

Advertisements
Track Severe Weather on mobile